Terminal Aerodrome Forecast
Issued by NWS

Current Version | Previous Version | Text Only | Print | Product List | Glossary On
Versions: 1 2 3 4 5 6 7 8 9 10 11 12 13 14 15
098
FTUS45 KRIW 100531
TAFBPI
TAF
KBPI 100531Z 1006/1106 VRB05KT 3SM -SN BKN015
     FM101000 VRB05KT 1 1/2SM -SN OVC009
     FM102000 26010KT 5SM -SN OVC025
     FM110200 30012KT P6SM VCSH SCT025 BKN040=

USA.gov is the U.S. government's official web portal to all federal, state and local government web resources and services.